createdAt,value
2022-08-08T00:01:08.023Z,2.50
2022-08-08T00:04:16.301Z,2.78
2022-08-08T00:06:55.537Z,3.05
2022-08-08T00:09:34.096Z,2.58
2022-08-08T00:12:10.222Z,2.23
2022-08-08T00:14:59.517Z,2.30
2022-08-08T00:18:02.117Z,2.67
2022-08-08T00:20:42.944Z,2.42
2022-08-08T00:23:16.327Z,2.50
2022-08-08T00:25:50.856Z,2.85
2022-08-08T00:28:35.145Z,2.63
2022-08-08T00:32:28.791Z,2.63
2022-08-08T00:34:54.286Z,2.72
2022-08-08T00:37:47.124Z,2.60
2022-08-08T00:41:11.467Z,2.50
2022-08-08T00:43:40.022Z,3.05
2022-08-08T00:46:56.875Z,2.90
2022-08-08T00:49:38.663Z,2.95
2022-08-08T00:52:39.238Z,3.00
2022-08-08T00:55:53.193Z,2.97
2022-08-08T00:58:54.137Z,2.55
2022-08-08T01:01:38.146Z,3.00
2022-08-08T01:04:48.548Z,3.00
2022-08-08T01:07:55.834Z,3.03
2022-08-08T01:10:43.089Z,3.33
2022-08-08T01:13:43.660Z,3.75
2022-08-08T01:16:32.160Z,3.38
2022-08-08T01:19:52.121Z,3.25
2022-08-08T01:22:50.469Z,3.38
2022-08-08T01:25:55.076Z,3.25
2022-08-08T01:28:31.048Z,3.03
2022-08-08T01:31:34.402Z,3.80
2022-08-08T01:35:02.160Z,3.45
2022-08-08T01:38:22.540Z,3.38
2022-08-08T01:41:02.326Z,2.95
2022-08-08T01:43:40.454Z,3.65
2022-08-08T01:46:41.970Z,3.63
2022-08-08T01:49:37.733Z,3.67
2022-08-08T01:52:57.263Z,3.08
2022-08-08T01:56:28.560Z,3.13
2022-08-08T01:59:03.839Z,3.58
2022-08-08T02:02:03.146Z,3.30
2022-08-08T02:04:43.276Z,3.47
2022-08-08T02:07:22.900Z,3.88
2022-08-08T02:10:29.611Z,3.92
2022-08-08T02:13:52.889Z,3.45
2022-08-08T02:16:22.009Z,3.33
2022-08-08T02:19:57.853Z,3.30
2022-08-08T02:22:52.525Z,3.40
2022-08-08T02:25:43.557Z,3.80
2022-08-08T02:28:34.728Z,3.28
2022-08-08T02:31:43.886Z,3.83
2022-08-08T02:35:08.354Z,3.33
2022-08-08T02:38:25.370Z,3.60
2022-08-08T02:41:59.570Z,4.22
2022-08-08T02:44:57.158Z,4.00
2022-08-08T02:47:52.186Z,3.80
2022-08-08T02:50:55.823Z,4.03
2022-08-08T02:53:42.499Z,3.95
2022-08-08T02:56:40.444Z,3.80
2022-08-08T03:00:15.878Z,3.63
2022-08-08T03:05:01.043Z,3.72
2022-08-08T03:06:40.500Z,4.85
2022-08-08T03:09:22.665Z,4.45
2022-08-08T03:12:36.431Z,3.83
2022-08-08T03:16:00.660Z,5.07
2022-08-08T03:18:37.088Z,3.70
2022-08-08T03:21:09.648Z,4.57
2022-08-08T03:23:39.915Z,4.07
2022-08-08T03:26:42.362Z,4.28
2022-08-08T03:29:18.844Z,4.35
2022-08-08T03:32:08.512Z,4.45
2022-08-08T03:34:40.329Z,4.43
2022-08-08T03:38:00.237Z,4.40
2022-08-08T03:40:03.524Z,4.68
2022-08-08T03:42:32.400Z,4.30
2022-08-08T03:45:00.306Z,4.45
2022-08-08T03:47:45.631Z,4.10
2022-08-08T03:50:19.693Z,4.13
2022-08-08T03:52:47.647Z,4.13
2022-08-08T03:55:20.014Z,4.13
2022-08-08T03:58:30.075Z,4.13
2022-08-08T04:01:24.314Z,4.60
2022-08-08T04:03:59.302Z,4.20
2022-08-08T04:06:33.658Z,4.40
2022-08-08T04:09:11.376Z,4.20
2022-08-08T04:11:48.169Z,4.45
2022-08-08T04:14:35.841Z,4.07
2022-08-08T04:17:07.128Z,3.95
2022-08-08T04:19:49.513Z,4.75
2022-08-08T04:22:18.485Z,4.70
2022-08-08T04:24:50.758Z,4.85
2022-08-08T04:27:42.898Z,4.57
2022-08-08T04:30:18.329Z,4.28
2022-08-08T04:32:49.913Z,4.97
2022-08-08T04:35:20.340Z,4.10
2022-08-08T04:37:51.097Z,4.65
2022-08-08T04:40:24.126Z,4.72
2022-08-08T04:42:56.722Z,5.28
2022-08-08T04:45:27.571Z,4.88
2022-08-08T04:48:00.212Z,4.80
2022-08-08T04:50:37.564Z,5.28
2022-08-08T04:53:14.167Z,5.00
2022-08-08T04:55:56.046Z,4.70
2022-08-08T04:58:25.884Z,5.03
2022-08-08T05:00:53.161Z,5.50
2022-08-08T05:04:09.636Z,4.63
2022-08-08T05:06:13.619Z,4.88
2022-08-08T05:08:51.588Z,4.93
2022-08-08T05:11:23.202Z,5.22
2022-08-08T05:13:58.756Z,4.65
2022-08-08T05:16:54.431Z,4.57
2022-08-08T05:20:10.051Z,5.05
2022-08-08T05:22:07.551Z,4.53
2022-08-08T05:24:37.456Z,5.40
2022-08-08T05:27:05.048Z,5.85
2022-08-08T05:29:36.008Z,5.95
2022-08-08T05:32:07.681Z,5.32
2022-08-08T05:34:51.217Z,4.65
2022-08-08T05:37:39.037Z,5.18
2022-08-08T05:40:16.756Z,5.55
2022-08-08T05:42:48.945Z,4.18
2022-08-08T05:45:25.551Z,4.32
2022-08-08T05:48:08.330Z,5.10
2022-08-08T05:50:36.888Z,4.85
2022-08-08T05:53:54.551Z,4.72
2022-08-08T05:56:08.280Z,3.92
2022-08-08T05:58:57.192Z,4.38
2022-08-08T06:01:57.088Z,4.72
2022-08-08T06:04:24.813Z,4.05
2022-08-08T06:07:00.605Z,4.03
2022-08-08T06:10:00.005Z,3.40
2022-08-08T06:12:30.237Z,4.35
2022-08-08T06:15:01.149Z,4.13
2022-08-08T06:17:51.024Z,4.20
2022-08-08T06:20:22.936Z,3.33
2022-08-08T06:22:52.429Z,3.72
2022-08-08T06:25:33.421Z,4.03
2022-08-08T06:28:29.693Z,3.75
2022-08-08T06:31:03.531Z,3.90
2022-08-08T06:34:25.875Z,4.45
2022-08-08T06:36:53.097Z,4.57
2022-08-08T06:39:24.980Z,3.63
2022-08-08T06:42:04.239Z,3.70
2022-08-08T06:44:42.678Z,4.00
2022-08-08T06:47:10.569Z,3.38
2022-08-08T06:49:55.702Z,3.35
2022-08-08T06:52:23.834Z,4.18
2022-08-08T06:54:55.362Z,3.72
2022-08-08T06:57:24.968Z,3.75
2022-08-08T07:00:10.384Z,3.78
2022-08-08T07:02:45.986Z,3.72
2022-08-08T07:05:20.070Z,3.33
2022-08-08T07:08:23.432Z,3.58
2022-08-08T07:10:55.863Z,3.60
2022-08-08T07:13:25.494Z,3.35
2022-08-08T07:16:05.048Z,3.63
2022-08-08T07:19:10.874Z,3.35
2022-08-08T07:22:00.466Z,3.97
2022-08-08T07:24:37.462Z,3.63
2022-08-08T07:27:11.411Z,3.53
2022-08-08T07:30:02.378Z,4.22
2022-08-08T07:32:34.527Z,3.65
2022-08-08T07:35:06.122Z,3.17
2022-08-08T07:37:55.710Z,3.30
2022-08-08T07:40:33.934Z,3.42
2022-08-08T07:43:09.090Z,3.65
2022-08-08T07:46:04.859Z,3.50
2022-08-08T07:48:29.676Z,3.70
2022-08-08T07:51:00.790Z,4.05
2022-08-08T07:54:02.400Z,3.75
2022-08-08T07:56:37.010Z,3.70
2022-08-08T07:59:14.250Z,3.80
2022-08-08T08:02:34.718Z,3.42
2022-08-08T08:04:46.718Z,3.28
2022-08-08T08:07:17.161Z,3.75
2022-08-08T08:09:44.392Z,3.20
2022-08-08T08:12:31.563Z,2.92
2022-08-08T08:15:05.361Z,3.40
2022-08-08T08:17:48.204Z,2.60
2022-08-08T08:20:17.575Z,3.10
2022-08-08T08:22:44.066Z,3.13
2022-08-08T08:25:16.940Z,3.75
2022-08-08T08:27:46.825Z,3.10
2022-08-08T08:30:14.798Z,2.63
2022-08-08T08:32:51.042Z,3.03
2022-08-08T08:35:18.212Z,2.67
2022-08-08T08:38:14.464Z,2.90
2022-08-08T08:40:35.581Z,3.13
2022-08-08T08:43:03.972Z,2.65
2022-08-08T08:45:31.602Z,2.70
2022-08-08T08:48:01.769Z,2.55
2022-08-08T08:50:35.312Z,2.38
2022-08-08T08:53:55.572Z,2.58
2022-08-08T08:56:06.934Z,2.15
2022-08-08T08:58:46.730Z,2.25
2022-08-08T09:01:23.700Z,2.20
2022-08-08T09:03:55.334Z,2.65
2022-08-08T09:06:34.272Z,2.40
2022-08-08T09:09:26.649Z,2.65
2022-08-08T09:12:07.486Z,2.40
2022-08-08T09:14:35.332Z,2.60
2022-08-08T09:17:09.695Z,2.70
2022-08-08T09:22:01.479Z,2.75
2022-08-08T09:22:27.948Z,2.65
2022-08-08T09:24:58.561Z,2.38
2022-08-08T09:27:56.812Z,2.70
2022-08-08T09:30:17.583Z,3.13
2022-08-08T09:33:12.790Z,2.42
2022-08-08T09:35:39.392Z,2.50
2022-08-08T09:38:24.486Z,2.70
2022-08-08T09:41:01.975Z,2.80
2022-08-08T09:44:04.242Z,2.53
2022-08-08T09:46:25.851Z,2.92
2022-08-08T09:48:57.853Z,2.88
2022-08-08T09:52:07.053Z,3.08
2022-08-08T09:54:42.380Z,2.72
2022-08-08T09:57:17.008Z,3.00
2022-08-08T10:00:01.973Z,3.13
2022-08-08T10:02:44.812Z,3.17
2022-08-08T10:05:26.067Z,3.22
2022-08-08T10:08:00.543Z,2.65
2022-08-08T10:10:41.642Z,3.17
2022-08-08T10:13:35.462Z,3.03
2022-08-08T10:16:03.781Z,3.05
2022-08-08T10:18:32.889Z,2.60
2022-08-08T10:21:23.227Z,3.40
2022-08-08T10:23:58.586Z,3.50
2022-08-08T10:26:52.395Z,2.63
2022-08-08T10:29:23.313Z,2.97
2022-08-08T10:32:16.453Z,2.70
2022-08-08T10:34:58.602Z,2.47
2022-08-08T10:37:35.409Z,2.58
2022-08-08T10:40:16.833Z,3.50
2022-08-08T10:42:45.418Z,3.08
2022-08-08T10:45:12.344Z,2.75
2022-08-08T10:47:48.521Z,3.10
2022-08-08T10:50:23.598Z,2.58
2022-08-08T10:52:50.655Z,2.72
2022-08-08T10:55:39.792Z,2.90
2022-08-08T10:58:08.992Z,2.72
2022-08-08T11:00:53.167Z,2.67
2022-08-08T11:04:00.583Z,3.35
2022-08-08T11:06:35.604Z,2.70
2022-08-08T11:09:19.235Z,3.10
2022-08-08T11:12:05.506Z,2.83
2022-08-08T11:14:34.704Z,3.10
2022-08-08T11:17:02.717Z,3.20
2022-08-08T11:19:33.529Z,3.55
2022-08-08T11:22:01.324Z,2.57
2022-08-08T11:24:34.202Z,2.60
2022-08-08T11:27:10.369Z,2.63
2022-08-08T11:29:58.428Z,2.80
2022-08-08T11:32:38.652Z,2.53
2022-08-08T11:35:27.315Z,2.85
2022-08-08T11:38:39.189Z,2.88
2022-08-08T11:40:52.400Z,2.72
2022-08-08T11:43:21.695Z,2.78
2022-08-08T11:46:14.417Z,2.40
2022-08-08T11:48:39.233Z,3.33
2022-08-08T11:51:34.931Z,2.72
2022-08-08T11:53:59.268Z,2.40
2022-08-08T11:56:33.196Z,2.53
2022-08-08T11:59:09.617Z,2.50
2022-08-08T12:01:37.083Z,2.78
2022-08-08T12:04:05.687Z,2.95
2022-08-08T12:06:33.292Z,2.70
2022-08-08T12:09:08.262Z,2.50
2022-08-08T12:11:52.928Z,3.00
2022-08-08T12:14:29.208Z,2.67
2022-08-08T12:16:57.106Z,2.95
2022-08-08T12:19:38.009Z,2.90
2022-08-08T12:22:13.926Z,3.00
2022-08-08T12:24:53.948Z,2.60
2022-08-08T12:27:26.947Z,2.55
2022-08-08T12:30:02.409Z,2.65
2022-08-08T12:32:41.465Z,2.78
2022-08-08T12:35:23.106Z,2.10
2022-08-08T12:38:05.859Z,2.40
2022-08-08T12:40:54.221Z,2.50
2022-08-08T12:43:43.569Z,2.78
2022-08-08T12:46:25.086Z,2.83
2022-08-08T12:49:22.266Z,2.65
2022-08-08T12:51:59.281Z,2.30
2022-08-08T12:54:38.334Z,2.60
2022-08-08T12:57:26.033Z,2.70
2022-08-08T13:00:03.370Z,2.65
2022-08-08T13:02:42.171Z,3.10
2022-08-08T13:05:26.583Z,2.80
2022-08-08T13:08:18.358Z,2.67
2022-08-08T13:10:56.312Z,2.53
2022-08-08T13:13:37.278Z,2.53
2022-08-08T13:16:21.291Z,2.90
2022-08-08T13:18:58.190Z,2.78
2022-08-08T13:21:48.770Z,2.80
2022-08-08T13:24:18.774Z,2.22
2022-08-08T13:27:03.406Z,2.63
2022-08-08T13:29:37.874Z,2.70
2022-08-08T13:32:10.945Z,2.60
2022-08-08T13:34:40.171Z,2.80
2022-08-08T13:37:11.047Z,2.58
2022-08-08T13:39:56.374Z,2.38
2022-08-08T13:42:25.157Z,3.03
2022-08-08T13:44:55.690Z,2.38
2022-08-08T13:47:23.016Z,2.92
2022-08-08T13:50:35.640Z,2.40
2022-08-08T13:52:51.332Z,2.50
2022-08-08T13:55:29.303Z,2.60
2022-08-08T13:58:07.963Z,2.85
2022-08-08T14:00:45.100Z,2.65
2022-08-08T14:03:52.486Z,2.45
2022-08-08T14:06:32.394Z,2.83
2022-08-08T14:08:58.060Z,2.47
2022-08-08T14:11:29.496Z,2.58
2022-08-08T14:13:59.689Z,2.33
2022-08-08T14:16:27.875Z,2.72
2022-08-08T14:19:00.859Z,2.47
2022-08-08T14:21:59.237Z,2.60
2022-08-08T14:24:32.643Z,2.83
2022-08-08T14:26:59.110Z,2.50
2022-08-08T14:29:30.822Z,2.55
2022-08-08T14:32:09.187Z,2.60
2022-08-08T14:34:37.532Z,2.72
2022-08-08T14:37:08.538Z,2.85
2022-08-08T14:40:05.814Z,2.50
2022-08-08T14:42:35.736Z,2.78
2022-08-08T14:45:09.971Z,2.67
2022-08-08T14:47:57.354Z,2.85
2022-08-08T14:50:38.890Z,2.70
2022-08-08T14:53:14.239Z,2.50
2022-08-08T14:55:43.106Z,2.72
2022-08-08T14:58:11.763Z,2.38
2022-08-08T15:00:43.328Z,2.40
2022-08-08T15:03:15.861Z,3.00
2022-08-08T15:05:54.775Z,3.00
2022-08-08T15:08:34.828Z,2.67
2022-08-08T15:11:11.127Z,3.13
2022-08-08T15:14:02.052Z,2.90
2022-08-08T15:16:29.815Z,2.60
2022-08-08T15:19:01.344Z,2.83
2022-08-08T15:21:30.305Z,2.63
2022-08-08T15:23:57.005Z,2.70
2022-08-08T15:26:25.848Z,3.03
2022-08-08T15:28:55.356Z,2.75
2022-08-08T15:31:55.815Z,2.70
2022-08-08T15:34:29.034Z,2.58
2022-08-08T15:36:56.570Z,2.90
2022-08-08T15:39:23.063Z,2.90
2022-08-08T15:41:49.626Z,2.28
2022-08-08T15:44:18.049Z,2.78
2022-08-08T15:46:45.278Z,2.78
2022-08-08T15:49:17.476Z,2.58
2022-08-08T15:51:48.172Z,2.53
2022-08-08T15:54:18.750Z,2.70
2022-08-08T15:57:02.884Z,2.50
2022-08-08T16:00:06.113Z,2.50
2022-08-08T16:02:16.217Z,2.95
2022-08-08T16:04:44.175Z,2.50
2022-08-08T16:07:16.767Z,2.70
2022-08-08T16:13:09.455Z,2.83
2022-08-08T16:13:14.780Z,2.22
2022-08-08T16:15:16.324Z,2.65
2022-08-08T16:18:06.443Z,2.60
2022-08-08T16:24:07.111Z,2.60
2022-08-08T16:26:39.393Z,2.50
2022-08-08T16:29:16.219Z,2.70
2022-08-08T16:31:49.149Z,2.42
2022-08-08T16:34:19.235Z,2.60
2022-08-08T16:36:45.761Z,2.38
2022-08-08T16:39:59.615Z,2.80
2022-08-08T16:42:05.867Z,2.50
2022-08-08T16:44:33.830Z,2.40
2022-08-08T16:47:21.897Z,2.30
2022-08-08T16:49:59.645Z,2.85
2022-08-08T16:55:01.173Z,3.13
2022-08-08T16:55:42.391Z,2.55
2022-08-08T16:58:14.355Z,2.47
2022-08-08T17:00:48.874Z,2.67
2022-08-08T17:03:24.447Z,2.40
2022-08-08T17:05:53.505Z,2.70
2022-08-08T17:08:20.612Z,2.75
2022-08-08T17:10:57.580Z,2.88
2022-08-08T17:13:27.439Z,2.67
2022-08-08T17:16:07.286Z,2.70
2022-08-08T17:18:41.970Z,3.33
2022-08-08T17:21:09.788Z,2.63
2022-08-08T17:24:00.556Z,2.75
2022-08-08T17:26:28.940Z,2.90
2022-08-08T17:28:56.446Z,3.22
2022-08-08T17:31:45.417Z,2.72
2022-08-08T17:34:36.728Z,2.83
2022-08-08T17:37:03.330Z,3.25
2022-08-08T17:40:03.092Z,2.70
2022-08-08T17:42:19.227Z,2.70
2022-08-08T17:44:49.128Z,3.20
2022-08-08T17:47:24.128Z,3.10
2022-08-08T17:50:06.893Z,2.80
2022-08-08T17:52:35.245Z,2.55
2022-08-08T17:56:04.025Z,2.67
2022-08-08T17:57:52.412Z,2.65
2022-08-08T18:00:19.746Z,2.78
2022-08-08T18:03:07.521Z,2.97
2022-08-08T18:05:49.547Z,2.80
2022-08-08T18:08:24.783Z,2.75
2022-08-08T18:11:11.936Z,2.75
2022-08-08T18:13:42.788Z,3.40
2022-08-08T18:16:09.796Z,2.75
2022-08-08T18:18:42.379Z,2.70
2022-08-08T18:21:35.466Z,2.90
2022-08-08T18:23:58.844Z,2.92
2022-08-08T18:26:25.862Z,3.38
2022-08-08T18:28:55.567Z,3.35
2022-08-08T18:31:22.445Z,2.60
2022-08-08T18:34:11.484Z,3.40
2022-08-08T18:36:36.562Z,3.08
2022-08-08T18:39:03.758Z,3.00
2022-08-08T18:41:51.140Z,3.30
2022-08-08T18:44:17.312Z,3.45
2022-08-08T18:46:55.066Z,3.13
2022-08-08T18:49:24.314Z,3.53
2022-08-08T18:51:54.494Z,3.70
2022-08-08T18:54:27.348Z,3.58
2022-08-08T18:56:57.103Z,3.65
2022-08-08T18:59:23.549Z,3.50
2022-08-08T19:02:26.166Z,3.50
2022-08-08T19:04:36.887Z,3.20
2022-08-08T19:07:03.841Z,4.18
2022-08-08T19:09:48.481Z,3.17
2022-08-08T19:12:17.945Z,3.20
2022-08-08T19:14:46.546Z,3.03
2022-08-08T19:17:13.315Z,2.92
2022-08-08T19:20:02.314Z,3.20
2022-08-08T19:22:29.659Z,3.58
2022-08-08T19:26:02.295Z,3.08
2022-08-08T19:27:55.909Z,3.33
2022-08-08T19:30:26.447Z,3.70
2022-08-08T19:32:53.932Z,3.80
2022-08-08T19:35:25.646Z,3.60
2022-08-08T19:38:12.853Z,3.70
2022-08-08T19:40:44.018Z,3.33
2022-08-08T19:43:11.936Z,3.55
2022-08-08T19:45:59.990Z,3.40
2022-08-08T19:48:28.111Z,3.65
2022-08-08T19:53:51.864Z,3.58
2022-08-08T19:56:12.216Z,3.58
2022-08-08T19:58:39.501Z,3.75
2022-08-08T20:01:17.112Z,3.28
2022-08-08T20:04:02.600Z,3.33
2022-08-08T20:06:29.976Z,3.65
2022-08-08T20:08:56.908Z,3.53
2022-08-08T20:11:23.752Z,3.50
2022-08-08T20:14:12.045Z,4.57
2022-08-08T20:16:40.937Z,3.17
2022-08-08T20:19:10.541Z,3.42
2022-08-08T20:21:38.325Z,3.60
2022-08-08T20:24:06.269Z,4.00
2022-08-08T20:26:38.171Z,3.13
2022-08-08T20:29:06.506Z,4.30
2022-08-08T20:32:06.985Z,3.47
2022-08-08T20:34:30.342Z,3.42
2022-08-08T20:36:58.683Z,3.88
2022-08-08T20:39:25.354Z,3.50
2022-08-08T20:42:00.408Z,4.07
2022-08-08T20:44:26.831Z,3.45
2022-08-08T20:46:53.256Z,3.25
2022-08-08T20:49:20.374Z,4.20
2022-08-08T20:51:48.386Z,3.85
2022-08-08T20:54:26.001Z,3.92
2022-08-08T20:57:16.724Z,3.33
2022-08-08T20:59:41.764Z,3.55
2022-08-08T21:02:09.072Z,3.83
2022-08-08T21:07:16.208Z,3.67
2022-08-08T21:09:48.542Z,3.63
2022-08-08T21:12:33.058Z,3.88
2022-08-08T21:17:34.965Z,4.50
2022-08-08T21:20:03.762Z,3.70
2022-08-08T21:22:30.477Z,4.63
2022-08-08T21:24:56.932Z,3.88
2022-08-08T21:28:05.913Z,3.58
2022-08-08T21:30:19.411Z,3.72
2022-08-08T21:32:51.578Z,3.40
2022-08-08T21:36:14.299Z,3.63
2022-08-08T21:38:08.567Z,4.03
2022-08-08T21:40:54.982Z,4.10
2022-08-08T21:43:23.217Z,4.30
2022-08-08T21:48:01.407Z,4.10
2022-08-08T21:48:41.682Z,3.40
2022-08-08T21:51:11.324Z,3.72
2022-08-08T21:54:31.087Z,3.95
2022-08-08T21:56:33.886Z,3.72
2022-08-08T21:59:05.619Z,4.05
2022-08-08T22:01:40.630Z,3.58
2022-08-08T22:04:10.580Z,4.18
2022-08-08T22:06:39.710Z,4.43
2022-08-08T22:09:09.033Z,4.13
2022-08-08T22:12:02.315Z,4.05
2022-08-08T22:14:23.914Z,4.07
2022-08-08T22:16:53.868Z,4.10
2022-08-08T22:19:23.763Z,3.75
2022-08-08T22:21:51.856Z,3.95
2022-08-08T22:24:23.951Z,4.35
2022-08-08T22:27:02.406Z,4.38
2022-08-08T22:30:01.671Z,4.53
2022-08-08T22:32:19.082Z,4.47
2022-08-08T22:34:50.436Z,4.10
2022-08-08T22:37:49.455Z,4.65
2022-08-08T22:40:07.557Z,4.93
2022-08-08T22:42:43.157Z,3.78
2022-08-08T22:45:13.713Z,4.22
2022-08-08T22:47:46.735Z,4.30
2022-08-08T22:50:26.928Z,4.13
2022-08-08T22:54:30.439Z,4.22
2022-08-08T22:55:57.855Z,3.83
2022-08-08T22:58:33.106Z,4.40
2022-08-08T23:01:26.585Z,3.67
2022-08-08T23:03:53.181Z,3.70
2022-08-08T23:06:21.330Z,3.75
2022-08-08T23:08:55.427Z,3.75
2022-08-08T23:11:58.194Z,3.92
2022-08-08T23:14:14.427Z,4.20
2022-08-08T23:16:44.182Z,3.70
2022-08-08T23:19:15.274Z,4.03
2022-08-08T23:21:42.163Z,4.18
2022-08-08T23:24:09.008Z,3.72
2022-08-08T23:26:35.706Z,4.05
2022-08-08T23:29:04.235Z,3.63
2022-08-08T23:31:38.616Z,3.83
2022-08-08T23:34:17.660Z,3.67
2022-08-08T23:36:46.148Z,4.32
2022-08-08T23:39:12.961Z,3.33
2022-08-08T23:41:45.506Z,3.67
2022-08-08T23:44:13.965Z,4.35
2022-08-08T23:49:02.105Z,3.63
2022-08-08T23:49:27.208Z,3.72
2022-08-08T23:52:04.996Z,3.53
2022-08-08T23:54:42.833Z,4.43
2022-08-08T23:57:27.477Z,3.67
